createdAt,value
2017-11-04T00:01:18.994Z,87.20
2017-11-04T00:03:47.187Z,88.57
2017-11-04T00:06:14.631Z,95.53
2017-11-04T00:08:42.810Z,92.20
2017-11-04T00:11:10.992Z,96.50
2017-11-04T00:13:39.171Z,85.80
2017-11-04T00:16:06.583Z,89.23
2017-11-04T00:18:34.001Z,95.00
2017-11-04T00:21:02.649Z,90.00
2017-11-04T00:23:31.757Z,89.50
2017-11-04T00:25:59.944Z,89.03
2017-11-04T00:28:27.352Z,93.50
2017-11-04T00:30:54.774Z,96.20
2017-11-04T00:33:22.228Z,90.68
2017-11-04T00:35:49.643Z,92.00
2017-11-04T00:38:17.823Z,90.93
2017-11-04T00:40:47.011Z,98.63
2017-11-04T00:43:14.422Z,96.40
2017-11-04T00:45:41.831Z,86.50
2017-11-04T00:48:09.263Z,88.37
2017-11-04T00:50:36.671Z,83.30
2017-11-04T00:53:04.079Z,95.07
2017-11-04T00:55:32.409Z,92.17
2017-11-04T00:57:59.876Z,92.23
2017-11-04T01:00:27.271Z,92.07
2017-11-04T01:02:55.481Z,94.60
2017-11-04T01:05:22.891Z,96.13
2017-11-04T01:07:50.419Z,90.40
2017-11-04T01:10:17.839Z,96.37
2017-11-04T01:12:45.244Z,89.60
2017-11-04T01:15:12.676Z,96.37
2017-11-04T01:17:40.083Z,86.70
2017-11-04T01:20:08.262Z,99.03
2017-11-04T01:22:36.459Z,89.63
2017-11-04T01:25:03.870Z,92.30
2017-11-04T01:27:31.316Z,88.23
2017-11-04T01:29:58.742Z,94.00
2017-11-04T01:32:26.195Z,97.73
2017-11-04T01:34:53.610Z,100.47
2017-11-04T01:37:21.806Z,90.63
2017-11-04T01:39:49.221Z,101.57
2017-11-04T01:42:16.631Z,91.43
2017-11-04T01:44:44.053Z,107.50
2017-11-04T01:47:12.227Z,88.73
2017-11-04T01:49:40.407Z,105.07
2017-11-04T01:52:08.613Z,96.00
2017-11-04T01:54:36.058Z,96.90
2017-11-04T01:57:04.619Z,94.47
2017-11-04T01:59:33.730Z,102.13
2017-11-04T02:02:01.134Z,95.37
2017-11-04T02:04:28.555Z,91.30
2017-11-04T02:06:55.970Z,88.83
2017-11-04T02:09:24.781Z,87.13
2017-11-04T02:11:52.214Z,94.87
2017-11-04T02:14:19.625Z,92.60
2017-11-04T02:16:47.035Z,83.40
2017-11-04T02:19:15.213Z,96.50
2017-11-04T02:21:43.391Z,91.13
2017-11-04T02:24:10.804Z,89.13
2017-11-04T02:26:38.214Z,91.97
2017-11-04T02:29:05.640Z,92.20
2017-11-04T02:31:34.746Z,90.80
2017-11-04T02:34:02.923Z,96.13
2017-11-04T02:36:31.100Z,87.97
2017-11-04T02:38:58.518Z,90.03
2017-11-04T02:41:25.923Z,97.03
2017-11-04T02:43:53.333Z,82.57
2017-11-04T02:46:20.743Z,95.60
2017-11-04T02:48:48.156Z,95.90
2017-11-04T02:51:16.342Z,93.83
2017-11-04T02:53:44.516Z,88.57
2017-11-04T02:56:12.707Z,88.40
2017-11-04T02:58:40.115Z,88.83
2017-11-04T03:01:07.535Z,89.10
2017-11-04T03:03:36.084Z,85.45
2017-11-04T03:06:05.178Z,82.93
2017-11-04T03:08:33.367Z,91.37
2017-11-04T03:11:01.283Z,91.53
2017-11-04T03:13:28.697Z,91.27
2017-11-04T03:15:56.119Z,89.63
2017-11-04T03:18:24.298Z,89.20
2017-11-04T03:20:52.484Z,87.53
2017-11-04T03:23:20.667Z,89.50
2017-11-04T03:25:48.081Z,87.77
2017-11-04T03:28:15.487Z,85.97
2017-11-04T03:30:42.963Z,94.60
2017-11-04T03:33:10.362Z,96.80
2017-11-04T03:35:38.538Z,90.13
2017-11-04T03:38:06.864Z,87.85
2017-11-04T03:40:34.275Z,86.83
2017-11-04T03:43:02.463Z,92.73
2017-11-04T03:45:30.690Z,93.93
2017-11-04T03:47:58.099Z,92.90
2017-11-04T03:50:25.518Z,88.47
2017-11-04T03:52:52.935Z,89.53
2017-11-04T03:55:20.390Z,98.20
2017-11-04T03:57:49.738Z,105.53
2017-11-04T04:00:17.926Z,110.37
2017-11-04T04:02:46.095Z,95.80
2017-11-04T04:05:13.520Z,94.30
2017-11-04T04:07:40.931Z,97.53
2017-11-04T04:10:08.362Z,95.67
2017-11-04T04:12:37.472Z,99.23
2017-11-04T04:15:05.644Z,98.63
2017-11-04T04:17:33.823Z,91.47
2017-11-04T04:20:01.243Z,100.83
2017-11-04T04:22:28.669Z,92.47
2017-11-04T04:24:56.075Z,95.70
2017-11-04T04:27:24.256Z,88.47
2017-11-04T04:29:51.686Z,93.00
2017-11-04T04:32:19.110Z,91.53
2017-11-04T04:34:46.550Z,92.80
2017-11-04T04:37:13.947Z,89.63
2017-11-04T04:39:41.372Z,92.53
2017-11-04T04:42:08.788Z,85.60
2017-11-04T04:44:37.883Z,85.60
2017-11-04T04:47:05.303Z,90.57
2017-11-04T04:49:32.715Z,99.83
2017-11-04T04:52:00.134Z,89.30
2017-11-04T04:54:27.542Z,97.50
2017-11-04T04:56:54.963Z,89.23
2017-11-04T04:59:23.155Z,94.57
2017-11-04T05:01:50.575Z,93.90
2017-11-04T05:04:17.983Z,92.70
2017-11-04T05:06:45.398Z,89.97
2017-11-04T05:09:13.585Z,88.50
2017-11-04T05:11:41.017Z,83.90
2017-11-04T05:14:09.202Z,97.77
2017-11-04T05:16:38.303Z,95.73
2017-11-04T05:19:05.716Z,91.30
2017-11-04T05:21:33.148Z,88.93
2017-11-04T05:24:00.555Z,83.03
2017-11-04T05:26:28.749Z,86.87
2017-11-04T05:28:56.934Z,87.73
2017-11-04T05:31:24.355Z,84.37
2017-11-04T05:33:52.538Z,87.07
2017-11-04T05:36:20.736Z,92.33
2017-11-04T05:38:48.150Z,88.03
2017-11-04T05:41:15.573Z,84.17
2017-11-04T05:43:42.990Z,97.63
2017-11-04T05:46:10.403Z,90.87
2017-11-04T05:48:39.256Z,92.13
2017-11-04T05:51:06.677Z,77.60
2017-11-04T05:53:34.867Z,81.30
2017-11-04T05:56:07.363Z,88.17
2017-11-04T05:58:34.758Z,89.63
2017-11-04T06:01:03.130Z,84.93
2017-11-04T06:03:30.535Z,82.67
2017-11-04T06:05:58.208Z,81.10
2017-11-04T06:08:25.627Z,78.70
2017-11-04T06:10:53.807Z,74.30
2017-11-04T06:13:21.990Z,78.63
2017-11-04T06:15:49.409Z,84.00
2017-11-04T06:18:16.832Z,76.37
2017-11-04T06:20:44.275Z,77.50
2017-11-04T06:23:11.736Z,85.93
2017-11-04T06:25:40.383Z,92.47
2017-11-04T06:28:09.489Z,83.60
2017-11-04T06:30:37.677Z,86.27
2017-11-04T06:33:05.086Z,82.77
2017-11-04T06:35:32.509Z,89.60
2017-11-04T06:37:59.958Z,81.07
2017-11-04T06:40:27.415Z,82.13
2017-11-04T06:42:54.835Z,77.87
2017-11-04T06:45:23.010Z,77.40
2017-11-04T06:47:51.199Z,77.80
2017-11-04T06:50:18.615Z,83.37
2017-11-04T06:52:46.035Z,90.53
2017-11-04T06:55:13.467Z,81.50
2017-11-04T06:57:40.883Z,84.07
2017-11-04T07:00:08.315Z,76.30
2017-11-04T07:02:35.737Z,79.27
2017-11-04T07:05:03.146Z,80.50
2017-11-04T07:07:30.574Z,85.50
2017-11-04T07:09:57.994Z,76.57
2017-11-04T07:12:25.417Z,80.77
2017-11-04T07:14:52.869Z,81.90
2017-11-04T07:17:20.266Z,77.13
2017-11-04T07:19:48.460Z,82.27
2017-11-04T07:22:15.870Z,82.03
2017-11-04T07:24:44.051Z,88.07
2017-11-04T07:27:12.226Z,86.80
2017-11-04T07:29:41.335Z,91.10
2017-11-04T07:32:08.750Z,91.50
2017-11-04T07:34:36.178Z,92.07
2017-11-04T07:37:03.587Z,78.97
2017-11-04T07:39:31.792Z,78.00
2017-11-04T07:41:59.212Z,87.47
2017-11-04T07:44:26.620Z,79.43
2017-11-04T07:46:54.050Z,84.93
2017-11-04T07:49:21.466Z,79.37
2017-11-04T07:51:48.897Z,81.47
2017-11-04T07:54:16.303Z,86.53
2017-11-04T07:56:44.484Z,82.77
2017-11-04T07:59:11.964Z,78.43
2017-11-04T08:01:39.354Z,87.20
2017-11-04T08:04:06.787Z,75.40
2017-11-04T08:06:34.191Z,82.73
2017-11-04T08:09:02.380Z,86.30
2017-11-04T08:11:30.561Z,84.40
2017-11-04T08:13:57.979Z,79.90
2017-11-04T08:16:25.401Z,83.30
2017-11-04T08:18:52.818Z,88.40
2017-11-04T08:21:21.001Z,84.30
2017-11-04T08:23:48.417Z,82.17
2017-11-04T08:26:15.846Z,77.23
2017-11-04T08:28:43.272Z,77.77
2017-11-04T08:31:10.688Z,82.00
2017-11-04T08:33:38.119Z,82.57
2017-11-04T08:36:05.546Z,75.33
2017-11-04T08:38:33.855Z,81.50
2017-11-04T08:41:01.267Z,83.90
2017-11-04T08:43:28.691Z,85.30
2017-11-04T08:45:56.105Z,81.60
2017-11-04T08:48:23.510Z,79.77
2017-11-04T08:50:51.691Z,76.27
2017-11-04T08:53:19.875Z,87.40
2017-11-04T08:55:48.056Z,89.43
2017-11-04T08:58:15.467Z,83.23
2017-11-04T09:00:43.767Z,87.82
2017-11-04T09:03:12.878Z,81.37
2017-11-04T09:05:40.295Z,88.87
2017-11-04T09:08:07.779Z,82.67
2017-11-04T09:10:35.992Z,94.43
2017-11-04T09:13:03.390Z,84.23
2017-11-04T09:15:30.903Z,89.40
2017-11-04T09:17:58.324Z,89.40
2017-11-04T09:20:26.494Z,93.80
2017-11-04T09:22:54.674Z,80.73
2017-11-04T09:25:22.851Z,80.67
2017-11-04T09:27:50.258Z,83.73
2017-11-04T09:30:17.674Z,85.37
2017-11-04T09:32:45.101Z,81.60
2017-11-04T09:35:12.508Z,87.13
2017-11-04T09:37:39.914Z,79.20
2017-11-04T09:40:08.090Z,85.67
2017-11-04T09:42:36.304Z,89.77
2017-11-04T09:45:03.859Z,83.03
2017-11-04T09:47:31.255Z,83.67
2017-11-04T09:49:58.663Z,78.27
2017-11-04T09:52:26.083Z,86.13
2017-11-04T09:54:54.261Z,76.97
2017-11-04T09:57:22.448Z,79.97
2017-11-04T09:59:49.859Z,77.13
2017-11-04T10:02:17.283Z,79.03
2017-11-04T10:04:44.698Z,73.53
2017-11-04T10:07:12.894Z,85.03
2017-11-04T10:09:40.319Z,74.80
2017-11-04T10:12:07.838Z,80.53
2017-11-04T10:14:35.230Z,79.90
2017-11-04T10:17:02.655Z,73.87
2017-11-04T10:19:30.066Z,79.03
2017-11-04T10:21:57.483Z,83.07
2017-11-04T10:24:24.903Z,77.70
2017-11-04T10:26:52.327Z,71.40
2017-11-04T10:29:20.510Z,77.87
2017-11-04T10:31:47.924Z,85.63
2017-11-04T10:34:15.348Z,78.83
2017-11-04T10:36:42.767Z,78.57
2017-11-04T10:39:10.972Z,87.37
2017-11-04T10:41:38.435Z,80.93
2017-11-04T10:44:05.860Z,73.43
2017-11-04T10:46:33.856Z,76.57
2017-11-04T10:49:01.304Z,76.80
2017-11-04T10:51:28.720Z,73.30
2017-11-04T10:53:56.147Z,73.27
2017-11-04T10:56:23.580Z,72.50
2017-11-04T10:58:51.008Z,68.43
2017-11-04T11:01:19.186Z,76.60
2017-11-04T11:03:46.608Z,70.60
2017-11-04T11:06:14.120Z,73.50
2017-11-04T11:08:41.559Z,79.63
2017-11-04T11:11:09.888Z,68.97
2017-11-04T11:13:37.310Z,77.33
2017-11-04T11:16:04.720Z,73.23
2017-11-04T11:18:32.906Z,70.00
2017-11-04T11:21:01.086Z,68.07
2017-11-04T11:23:29.266Z,75.63
2017-11-04T11:25:56.693Z,76.97
2017-11-04T11:28:24.114Z,77.80
2017-11-04T11:30:51.552Z,72.83
2017-11-04T11:33:18.966Z,73.93
2017-11-04T11:35:46.468Z,79.63
2017-11-04T11:38:13.885Z,81.90
2017-11-04T11:40:42.063Z,84.77
2017-11-04T11:43:10.256Z,81.77
2017-11-04T11:45:37.681Z,73.80
2017-11-04T11:48:05.864Z,76.17
2017-11-04T11:50:34.058Z,71.10
2017-11-04T11:53:01.476Z,72.60
2017-11-04T11:55:29.511Z,69.33
2017-11-04T11:57:56.952Z,68.97
2017-11-04T12:00:24.377Z,67.30
2017-11-04T12:02:52.556Z,73.03
2017-11-04T12:05:20.747Z,68.37
2017-11-04T12:07:48.162Z,74.70
2017-11-04T12:10:15.597Z,81.33
2017-11-04T12:12:43.019Z,75.53
2017-11-04T12:15:10.444Z,75.80
2017-11-04T12:17:38.638Z,76.43
2017-11-04T12:20:06.055Z,72.93
2017-11-04T12:22:33.491Z,67.78
2017-11-04T12:25:00.901Z,68.30
2017-11-04T12:27:28.382Z,76.60
2017-11-04T12:29:55.786Z,68.50
2017-11-04T12:32:23.207Z,65.97
2017-11-04T12:34:50.631Z,69.70
2017-11-04T12:37:18.055Z,66.20
2017-11-04T12:39:46.244Z,64.80
2017-11-04T12:42:14.429Z,67.97
2017-11-04T12:44:41.868Z,70.90
2017-11-04T12:47:10.055Z,69.87
2017-11-04T12:49:37.487Z,70.23
2017-11-04T12:52:05.683Z,70.00
2017-11-04T12:54:33.095Z,66.67
2017-11-04T12:57:00.517Z,62.87
2017-11-04T13:02:26.594Z,72.20
2017-11-04T13:04:54.012Z,61.23
2017-11-04T13:07:21.431Z,67.20
2017-11-04T13:09:49.614Z,75.17
2017-11-04T13:14:53.342Z,64.17
2017-11-04T13:17:20.822Z,68.67
2017-11-04T13:19:49.385Z,60.67
2017-11-04T13:22:16.807Z,59.43
2017-11-04T13:24:44.220Z,69.70
2017-11-04T13:27:11.685Z,64.63
2017-11-04T13:29:39.159Z,68.23
2017-11-04T13:32:06.575Z,67.37
2017-11-04T13:34:34.043Z,65.77
2017-11-04T13:37:01.513Z,65.87
2017-11-04T13:39:28.940Z,65.53
2017-11-04T13:41:56.355Z,68.53
2017-11-04T13:44:23.775Z,70.27
2017-11-04T13:46:51.227Z,66.33
2017-11-04T13:49:20.557Z,69.05
2017-11-04T13:51:47.986Z,60.63
2017-11-04T13:54:15.441Z,58.40
2017-11-04T13:56:42.851Z,70.17
2017-11-04T13:59:11.036Z,62.03
2017-11-04T14:01:39.215Z,61.50
2017-11-04T14:04:07.421Z,62.07
2017-11-04T14:06:34.836Z,61.73
2017-11-04T14:09:03.037Z,60.83
2017-11-04T14:11:30.450Z,57.67
2017-11-04T14:13:57.887Z,56.90
2017-11-04T14:16:25.310Z,62.43
2017-11-04T14:18:52.720Z,63.97
2017-11-04T14:21:20.146Z,58.97
2017-11-04T14:23:47.554Z,66.73
2017-11-04T14:26:15.044Z,58.70
2017-11-04T14:28:42.456Z,58.50
2017-11-04T14:31:10.639Z,54.27
2017-11-04T14:33:38.068Z,62.93
2017-11-04T14:36:05.601Z,53.00
2017-11-04T14:38:33.019Z,56.07
2017-11-04T14:41:00.757Z,51.50
2017-11-04T14:43:28.158Z,50.73
2017-11-04T14:45:55.627Z,59.43
2017-11-04T14:48:23.047Z,54.73
2017-11-04T14:50:50.458Z,51.30
2017-11-04T14:53:17.883Z,54.57
2017-11-04T14:55:45.828Z,48.90
2017-11-04T14:58:13.244Z,54.90
2017-11-04T15:00:40.670Z,52.60
2017-11-04T15:03:08.092Z,49.10
2017-11-04T15:05:36.500Z,50.37
2017-11-04T15:08:03.907Z,48.60
2017-11-04T15:10:32.124Z,48.20
2017-11-04T15:12:59.588Z,49.83
2017-11-04T15:15:26.995Z,50.70
2017-11-04T15:17:55.203Z,48.70
2017-11-04T15:20:22.620Z,49.97
2017-11-04T15:22:51.662Z,56.70
2017-11-04T15:25:19.089Z,53.63
2017-11-04T15:27:47.269Z,56.37
2017-11-04T15:30:14.707Z,59.37
2017-11-04T15:32:42.114Z,54.77
2017-11-04T15:35:09.540Z,53.27
2017-11-04T15:37:36.961Z,54.30
2017-11-04T15:40:04.381Z,61.00
2017-11-04T15:42:31.807Z,63.13
2017-11-04T15:44:59.223Z,51.55
2017-11-04T15:47:26.643Z,55.93
2017-11-04T15:49:54.103Z,54.77
2017-11-04T15:52:21.536Z,56.83
2017-11-04T15:54:49.712Z,53.63
2017-11-04T15:57:17.146Z,54.13
2017-11-04T15:59:45.338Z,56.10
2017-11-04T16:02:13.196Z,57.57
2017-11-04T16:04:40.615Z,61.60
2017-11-04T16:07:08.055Z,55.00
2017-11-04T16:09:35.471Z,50.40
2017-11-04T16:12:02.890Z,54.15
2017-11-04T16:14:31.100Z,52.50
2017-11-04T16:16:58.524Z,55.60
2017-11-04T16:19:26.871Z,50.77
2017-11-04T16:21:54.302Z,55.97
2017-11-04T16:24:22.581Z,50.83
2017-11-04T16:26:50.007Z,53.47
2017-11-04T16:29:18.186Z,50.53
2017-11-04T16:31:45.599Z,55.13
2017-11-04T16:34:13.015Z,49.17
2017-11-04T16:36:40.435Z,55.17
2017-11-04T16:39:08.615Z,53.10
2017-11-04T16:41:36.803Z,57.50
2017-11-04T16:44:04.223Z,56.40
2017-11-04T16:46:31.920Z,51.53
2017-11-04T16:48:59.334Z,54.17
2017-11-04T16:51:26.876Z,51.80
2017-11-04T16:53:54.270Z,49.10
2017-11-04T16:56:22.964Z,48.42
2017-11-04T16:58:52.079Z,51.07
2017-11-04T17:01:19.496Z,53.13
2017-11-04T17:03:47.012Z,50.07
2017-11-04T17:06:14.450Z,55.50
2017-11-04T17:08:41.876Z,53.40
2017-11-04T17:11:10.058Z,49.27
2017-11-04T17:13:37.502Z,54.40
2017-11-04T17:16:05.734Z,49.30
2017-11-04T17:18:33.147Z,52.00
2017-11-04T17:21:01.288Z,45.37
2017-11-04T17:23:28.705Z,51.83
2017-11-04T17:25:56.150Z,50.57
2017-11-04T17:28:23.563Z,53.07
2017-11-04T17:30:50.986Z,54.13
2017-11-04T17:33:18.404Z,53.63
2017-11-04T17:35:45.827Z,52.83
2017-11-04T17:38:13.270Z,51.77
2017-11-04T17:40:40.680Z,49.93
2017-11-04T17:43:08.095Z,53.17
2017-11-04T17:45:35.518Z,61.00
2017-11-04T17:48:02.957Z,57.10
2017-11-04T17:50:30.372Z,55.50
2017-11-04T17:52:58.559Z,50.03
2017-11-04T17:55:26.776Z,55.63
2017-11-04T17:57:54.218Z,58.87
2017-11-04T18:00:21.633Z,55.80
2017-11-04T18:02:49.826Z,53.37
2017-11-04T18:05:17.310Z,58.23
2017-11-04T18:07:44.773Z,54.73
2017-11-04T18:10:12.179Z,53.83
2017-11-04T18:12:40.373Z,51.10
2017-11-04T18:15:07.811Z,47.07
2017-11-04T18:17:36.025Z,56.63
2017-11-04T18:20:03.438Z,50.67
2017-11-04T18:22:31.632Z,50.33
2017-11-04T18:24:59.058Z,49.23
2017-11-04T18:27:26.547Z,45.50
2017-11-04T18:29:53.963Z,46.53
2017-11-04T18:32:21.391Z,53.23
2017-11-04T18:34:48.815Z,50.63
2017-11-04T18:37:16.474Z,50.97
2017-11-04T18:39:43.891Z,42.37
2017-11-04T18:42:11.322Z,43.70
2017-11-04T18:44:38.736Z,39.97
2017-11-04T18:47:06.155Z,39.50
2017-11-04T18:49:33.579Z,46.20
2017-11-04T18:52:00.991Z,36.87
2017-11-04T18:54:29.173Z,41.40
2017-11-04T18:56:57.379Z,42.23
2017-11-04T18:59:24.796Z,45.47
2017-11-04T19:01:52.992Z,41.30
2017-11-04T19:04:20.404Z,41.20
2017-11-04T19:06:48.339Z,40.10
2017-11-04T19:09:15.802Z,40.83
2017-11-04T19:11:43.240Z,39.77
2017-11-04T19:14:10.671Z,40.60
2017-11-04T19:16:38.846Z,39.03
2017-11-04T19:19:06.270Z,40.67
2017-11-04T19:21:34.451Z,40.93
2017-11-04T19:24:03.393Z,42.40
2017-11-04T19:26:30.799Z,40.77
2017-11-04T19:28:58.215Z,43.73
2017-11-04T19:31:25.643Z,41.37
2017-11-04T19:33:53.062Z,45.70
2017-11-04T19:36:20.523Z,46.40
2017-11-04T19:38:48.715Z,42.33
2017-11-04T19:41:16.933Z,41.60
2017-11-04T19:43:44.371Z,44.30
2017-11-04T19:46:11.786Z,42.67
2017-11-04T19:48:39.980Z,43.17
2017-11-04T19:51:07.398Z,46.80
2017-11-04T19:53:34.815Z,44.03
2017-11-04T19:56:02.271Z,41.90
2017-11-04T19:58:29.688Z,43.60
2017-11-04T20:00:57.863Z,43.13
2017-11-04T20:03:26.044Z,42.40
2017-11-04T20:05:55.151Z,41.37
2017-11-04T20:08:22.570Z,40.53
2017-11-04T20:10:49.990Z,43.17
2017-11-04T20:13:17.414Z,41.60
2017-11-04T20:15:44.839Z,48.23
2017-11-04T20:18:12.254Z,44.30
2017-11-04T20:20:39.684Z,40.93
2017-11-04T20:23:07.103Z,39.47
2017-11-04T20:25:34.619Z,38.17
2017-11-04T20:28:02.039Z,44.87
2017-11-04T20:30:30.226Z,37.37
2017-11-04T20:32:58.287Z,38.43
2017-11-04T20:35:26.475Z,39.73
2017-11-04T20:37:53.894Z,38.30
2017-11-04T20:40:21.303Z,42.30
2017-11-04T20:42:49.167Z,42.47
2017-11-04T20:45:16.579Z,39.40
2017-11-04T20:47:44.751Z,38.20
2017-11-04T20:50:12.941Z,41.00
2017-11-04T20:52:41.126Z,40.73
2017-11-04T20:55:08.543Z,42.10
2017-11-04T20:57:36.672Z,39.43
2017-11-04T21:00:04.112Z,37.67
2017-11-04T21:02:31.530Z,41.60
2017-11-04T21:04:58.959Z,42.17
2017-11-04T21:07:26.379Z,39.13
2017-11-04T21:09:53.796Z,45.27
2017-11-04T21:12:21.306Z,41.63
2017-11-04T21:14:48.764Z,41.53
2017-11-04T21:17:16.185Z,45.93
2017-11-04T21:19:44.419Z,45.40
2017-11-04T21:22:11.855Z,51.33
2017-11-04T21:24:39.271Z,40.37
2017-11-04T21:27:07.463Z,44.97
2017-11-04T21:29:34.862Z,46.17
2017-11-04T21:32:02.307Z,43.57
2017-11-04T21:34:29.732Z,45.40
2017-11-04T21:36:57.147Z,44.30
2017-11-04T21:39:24.566Z,40.53
2017-11-04T21:41:51.983Z,41.03
2017-11-04T21:44:20.167Z,40.47
2017-11-04T21:46:47.592Z,39.67
2017-11-04T21:49:15.000Z,47.83
2017-11-04T21:51:42.457Z,42.40
2017-11-04T21:54:09.868Z,42.10
2017-11-04T21:56:38.064Z,41.83
2017-11-04T21:59:05.492Z,45.73
2017-11-04T22:01:33.319Z,41.43
2017-11-04T22:04:00.730Z,48.07
2017-11-04T22:06:28.923Z,37.73
2017-11-04T22:08:57.699Z,46.15
2017-11-04T22:11:27.346Z,39.97
2017-11-04T22:13:54.774Z,37.73
2017-11-04T22:16:22.200Z,40.70
2017-11-04T22:18:50.394Z,35.30
2017-11-04T22:21:19.409Z,43.00
2017-11-04T22:23:46.831Z,44.77
2017-11-04T22:26:15.020Z,37.97
2017-11-04T22:28:42.443Z,37.88
2017-11-04T22:31:09.860Z,31.90
2017-11-04T22:33:37.279Z,40.83
2017-11-04T22:36:05.451Z,36.17
2017-11-04T22:38:33.656Z,36.17
2017-11-04T22:41:01.937Z,29.67
2017-11-04T22:43:29.352Z,34.20
2017-11-04T22:45:58.140Z,34.70
2017-11-04T22:48:27.282Z,38.57
2017-11-04T22:50:54.740Z,34.00
2017-11-04T22:53:22.139Z,33.17
2017-11-04T22:55:50.327Z,34.83
2017-11-04T22:58:18.529Z,32.97
2017-11-04T23:00:45.949Z,36.40
2017-11-04T23:03:14.134Z,36.15
2017-11-04T23:05:42.351Z,40.27
2017-11-04T23:08:09.768Z,36.20
2017-11-04T23:10:37.187Z,34.40
2017-11-04T23:13:04.604Z,33.10
2017-11-04T23:15:32.010Z,32.90
2017-11-04T23:18:00.218Z,32.10
2017-11-04T23:20:28.586Z,37.00
2017-11-04T23:22:56.020Z,34.27
2017-11-04T23:25:24.935Z,37.60
2017-11-04T23:27:52.363Z,34.00
2017-11-04T23:30:19.774Z,34.03
2017-11-04T23:32:47.186Z,35.53
2017-11-04T23:35:15.379Z,38.80
2017-11-04T23:37:42.844Z,40.17
2017-11-04T23:40:10.259Z,35.10
2017-11-04T23:42:37.675Z,36.60
2017-11-04T23:45:05.097Z,37.60
2017-11-04T23:47:32.519Z,36.73
2017-11-04T23:49:59.939Z,43.17
2017-11-04T23:52:28.287Z,38.17
2017-11-04T23:54:56.482Z,50.70
2017-11-04T23:57:23.935Z,40.90
2017-11-04T23:59:51.361Z,39.33
